Historyczne dane pomiarowe

Dodano dane terminowe – wersja testowa.

Dane z okresu 1951-2019

Wersja bazy: 1.34 [2019-03-16, lista zmian], aktualizacja planowana na 2019-04-15

Dane meteo z obszaru Polski uzyskane na podstawie danych udostępnionych przez Instytut Meteorologii i Gospodarki Wodnej – Państwowy Instytut Badawczy.

 

Wybierz Datę:    

       

TemperaturaWilgotnośćWiatrCiśnienieOpadyŚniegCzas trwania zjawisk
 Stacja t tx tn tng RH VA  wxwx mslp ppp RRR   cm mm wxwxwxwxwxwxwx
1997-09-11 11.2 15.3 9.1- 79.0- 3.7 4.0---- 0.0------------
1997-09-12 12.8 21.0 3.0- 70.0- 3.3 7.0---- 0.0------------
1997-09-13 17.5 23.8 11.9- 70.5- 3.7 4.7---- 15.5------------
1997-09-14 11.5 17.4 8.9- 89.5- 7.3 1.0---- 0.0------------
1997-09-15 8.8 16.0 3.6- 87.5- 3.0 1.0---- 0.0------------
1997-09-16 9.8 19.4 2.7- 85.3- 3.0 0.0---- 0.0------------
1997-09-17 12.4 20.0 3.9- 72.5- 0.0 3.0---- 0.0------------
1997-09-18 12.5 21.7 5.7- 85.5- 4.3 0.0---- 0.0------------
1997-09-19 12.7 21.7 8.5- 87.0- 7.0 2.0---- 6.5------------
1997-09-20 8.8 12.9 7.2- 85.5- 3.0 2.0---- 0.0------------
1997-09-21 6.6 14.3 1.5- 85.8- 0.7 0.3---- 0.0------------
1997-09-22 7.4 16.1 1.2- 86.8- 0.3 0.7---- 0.0------------
1997-09-23 9.9 18.7 2.7- 82.0- 0.3 1.0---- 0.8------------
1997-09-24 8.8 12.9 6.2- 83.8- 4.0 3.7---- 0.0------------
1997-09-25 10.1 13.3 5.9- 86.0- 8.0 4.3---- 0.0------------
1997-09-26 12.6 16.3 9.8- 85.0- 7.0 4.7---- 0.0------------
1997-09-27 10.7 13.8 9.4- 79.3- 8.0 4.7---- 0.0------------
1997-09-28 9.4 11.8 8.5- 79.8- 7.7 2.3---- 0.0------------
1997-09-29 8.0 14.4 3.7- 85.5- 6.0 0.7---- 0.6------------
1997-09-30 10.0 12.5 5.3- 95.8- 7.0 5.3---- 4.0------------
1997-10-01 9.2 12.8 7.0- 85.5- 4.0 3.3---- 14.7------------
1997-10-02 9.0 12.2 4.7- 87.3- 6.7 4.0---- 1.8------------
1997-10-03 8.4 11.2 7.3- 85.3- 6.3 6.3---- 0.2------------
1997-10-04 9.7 12.4 7.4- 78.8- 6.3 2.7---- 0.1------------
1997-10-05 14.2 19.0 10.9- 75.8- 6.3 7.3---- 1.0------------
1997-10-06 11.5 16.5 8.6- 93.8- 4.3 0.7---- 0.0------------
1997-10-07 14.9 18.9 10.9- 77.5- 2.3 3.3---- 0.0------------
1997-10-08 14.4 21.3 8.4- 83.0- 4.7 0.3---- 0.0------------
1997-10-09 15.9 19.8 10.3- 79.5- 7.7 2.0---- 0.3------------
1997-10-10 16.8 20.0 15.2- 81.3- 7.7 2.0---- 15.0------------
2040.5 ms

 

Źródłem pochodzenia danych jest Instytut Meteorologii i Gospodarki Wodnej – Państwowy Instytut Badawczy. Dane Instytutu Meteorologii i Gospodarki Wodnej – Państwowego Instytutu Badawczego zostały przetworzone.

Dane źródłowe można odnaleźć na stronie https://dane.imgw.pl